Nissyomaru — JD2650 — position and weather

sailwx.info

Track history (hours):
 
Tides and Currents Weather Stations Pressure Air Temp Water Temp Dewpoint Dewpoint Depression Visibility Wind Speed Wind Dir Waves Ship Positions

Nissyomaru

Last reported at 2014-Aug-29 14:33 UTC. Time now 2014-Sep-03 07:04 UTC.
Position N 36°11' E 141°04'.

Length 75 m; draft 4 m.

Type: Cargo ship. MMSI: 431000572.

Date/timePositionNaut miles runAvg speedWind from/ knotsBaromVisibWave heightAir tempDewpointWater temp
2014-Aug-29 14:33N 36°11' E 141°04'1211.6
2014-Aug-29 13:33N 35°59' E 141°01'1212.1
2014-Aug-29 12:33N 35°47' E 140°58'1111.5
2014-Aug-29 11:33N 35°37' E 140°52'1211.5
2014-Aug-29 10:32N 35°27' E 140°44'1211.3
2014-Aug-29 09:30N 35°18' E 140°35'2111.0
2014-Aug-29 07:33N 35°02' E 140°17'1211.3
2014-Aug-29 06:32N 34°56' E 140°06'264 6.1
2014-Aug-27 11:30N 34°04' E 134°51'1313.4
2014-Aug-27 10:33N 34°16' E 134°58'1212.2
2014-Aug-27 09:32N 34°26' E 135°06'1313.4
2014-Aug-27 08:33N 34°36' E 135°16'6 5.7
2014-Aug-27 07:32N 34°42' E 135°18'1 1.3
2014-Aug-27 06:29N 34°42' E 135°17'0 0.0
2014-Aug-27 05:17N 34°42' E 135°17'0 0.0
2014-Aug-27 04:29N 34°42' E 135°17'0 0.0
2014-Aug-27 03:29N 34°42' E 135°17'1 0.6
2014-Aug-27 02:33N 34°42' E 135°17'1111.2
2014-Aug-27 01:33N 34°31' E 135°13'2512.4
2014-Aug-26 23:33N 34°09' E 134°60'218 6.1
2014-Aug-25 12:03N 34°52' E 139°20'611.5
2014-Aug-25 11:33N 34°55' E 139°25'1212.2
2014-Aug-25 10:33N 35°03' E 139°37'1212.4
2014-Aug-25 09:33N 35°13' E 139°46'1212.1
2014-Aug-25 08:33N 35°24' E 139°43'5 5.2
2014-Aug-25 07:33N 35°29' E 139°43'0 0.0
2014-Aug-25 06:31N 35°29' E 139°43'0 0.2
2014-Aug-25 05:33N 35°29' E 139°43'3 2.7
2014-Aug-25 04:33N 35°27' E 139°44'1010.4
2014-Aug-25 03:33N 35°16' E 139°46'1110.9
2014-Aug-25 02:33N 35°06' E 139°45'1110.8
2014-Aug-25 01:31N 34°54' E 139°46'1010.2
2014-Aug-25 00:33N 34°52' E 139°57'1111.5
2014-Aug-24 23:33N 34°58' E 140°09'2410.9
2014-Aug-24 21:23N 35°14' E 140°31'1012.0
2014-Aug-24 20:32N 35°22' E 140°39'  
Track history (hours):
 
Tides and Currents Weather Stations Pressure Air Temp Water Temp Dewpoint Dewpoint Depression Visibility Wind Speed Wind Dir Waves Ship Positions

Nissyomaru

Last reported at 2014-Aug-29 14:33 UTC. Time now 2014-Sep-03 07:04 UTC.
Position N 36°11' E 141°04'.

Length 75 m; draft 4 m.

Type: Cargo ship. MMSI: 431000572.

Date/timePositionNaut miles runAvg speedWind from/ knotsBaromVisibWave heightAir tempDewpointWater temp
2014-Aug-29 14:33N 36°11' E 141°04'1211.6
2014-Aug-29 13:33N 35°59' E 141°01'1212.1
2014-Aug-29 12:33N 35°47' E 140°58'1111.5
2014-Aug-29 11:33N 35°37' E 140°52'1211.5
2014-Aug-29 10:32N 35°27' E 140°44'1211.3
2014-Aug-29 09:30N 35°18' E 140°35'2111.0
2014-Aug-29 07:33N 35°02' E 140°17'1211.3
2014-Aug-29 06:32N 34°56' E 140°06'264 6.1
2014-Aug-27 11:30N 34°04' E 134°51'1313.4
2014-Aug-27 10:33N 34°16' E 134°58'1212.2
2014-Aug-27 09:32N 34°26' E 135°06'1313.4
2014-Aug-27 08:33N 34°36' E 135°16'6 5.7
2014-Aug-27 07:32N 34°42' E 135°18'1 1.3
2014-Aug-27 06:29N 34°42' E 135°17'0 0.0
2014-Aug-27 05:17N 34°42' E 135°17'0 0.0
2014-Aug-27 04:29N 34°42' E 135°17'0 0.0
2014-Aug-27 03:29N 34°42' E 135°17'1 0.6
2014-Aug-27 02:33N 34°42' E 135°17'1111.2
2014-Aug-27 01:33N 34°31' E 135°13'2512.4
2014-Aug-26 23:33N 34°09' E 134°60'218 6.1
2014-Aug-25 12:03N 34°52' E 139°20'611.5
2014-Aug-25 11:33N 34°55' E 139°25'1212.2
2014-Aug-25 10:33N 35°03' E 139°37'1212.4
2014-Aug-25 09:33N 35°13' E 139°46'1212.1
2014-Aug-25 08:33N 35°24' E 139°43'5 5.2
2014-Aug-25 07:33N 35°29' E 139°43'0 0.0
2014-Aug-25 06:31N 35°29' E 139°43'0 0.2
2014-Aug-25 05:33N 35°29' E 139°43'3 2.7
2014-Aug-25 04:33N 35°27' E 139°44'1010.4
2014-Aug-25 03:33N 35°16' E 139°46'1110.9
2014-Aug-25 02:33N 35°06' E 139°45'1110.8
2014-Aug-25 01:31N 34°54' E 139°46'1010.2
2014-Aug-25 00:33N 34°52' E 139°57'1111.5
2014-Aug-24 23:33N 34°58' E 140°09'2410.9
2014-Aug-24 21:23N 35°14' E 140°31'1012.0
2014-Aug-24 20:32N 35°22' E 140°39'  

Dump ship's entire track history